Time;durP1;ratioP1;P1;durP2;ratioP2;P2;SDS_P1;SDS_P2;PMS_P1;PMS_P2;Temp;Humidity;BMP_temperature;BMP_pressure;BME280_temperature;BME280_humidity;BME280_pressure;Samples;Min_cycle;Max_cycle;Signal;HPM_P1;HPM_P2
2022/12/15 00:39:41;;;;;;;21.43;10.93;;;-4.00;99.90;;;;;;5071531;28;20040;-62
2022/12/15 00:42:07;;;;;;;20.85;10.10;;;-4.00;99.90;;;;;;5074398;28;20043;-62
2022/12/15 00:44:33;;;;;;;17.67;10.27;;;-4.10;99.90;;;;;;5075181;28;20170;-62
2022/12/15 00:47:00;;;;;;;20.98;9.85;;;-4.00;99.90;;;;;;5074754;28;20430;-59
2022/12/15 01:22:36;;;;;;;19.33;10.35;;;-3.80;99.90;;;;;;5073930;28;20036;-61
2022/12/15 01:25:03;;;;;;;21.00;11.73;;;-3.90;99.90;;;;;;5074624;28;20036;-60
2022/12/15 01:27:29;;;;;;;20.02;10.20;;;-3.90;99.90;;;;;;5072449;28;20057;-61
2022/12/15 01:29:55;;;;;;;19.98;10.57;;;-3.90;99.90;;;;;;5074055;28;20052;-59
2022/12/15 01:32:21;;;;;;;19.38;9.75;;;-3.90;99.90;;;;;;5073661;28;20619;-57
2022/12/15 01:34:46;;;;;;;18.92;9.13;;;-3.90;99.90;;;;;;5074183;28;20047;-59
2022/12/15 01:37:12;;;;;;;22.38;10.52;;;-3.90;99.90;;;;;;5073771;28;20044;-58
2022/12/15 01:42:21;;;;;;;20.77;10.52;;;-4.00;99.90;;;;;;5073746;28;20351;-60
2022/12/15 01:44:50;;;;;;;17.40;9.68;;;-4.00;99.90;;;;;;5073830;28;20147;-60
2022/12/15 01:47:16;;;;;;;21.88;9.98;;;-4.00;99.90;;;;;;5073354;28;20094;-59
2022/12/15 01:49:46;;;;;;;19.50;10.57;;;-4.10;99.90;;;;;;5073515;28;20114;-60
2022/12/15 01:52:14;;;;;;;17.67;10.20;;;-4.00;99.90;;;;;;5072316;28;20051;-60
2022/12/15 01:54:43;;;;;;;21.75;10.50;;;-4.20;99.90;;;;;;5073200;28;20044;-60
2022/12/15 01:57:13;;;;;;;23.42;11.48;;;-4.20;99.90;;;;;;5073954;28;20040;-58
2022/12/15 01:59:49;;;;;;;22.55;10.48;;;-4.10;99.90;;;;;;5073965;28;20055;-60
2022/12/15 02:02:16;;;;;;;19.92;9.13;;;-4.20;99.90;;;;;;5072817;28;20124;-58
2022/12/15 02:04:43;;;;;;;24.73;10.43;;;-4.20;99.90;;;;;;5072887;28;20052;-59
2022/12/15 02:07:13;;;;;;;20.75;11.27;;;-4.20;99.90;;;;;;5073319;28;20036;-60
2022/12/15 02:09:39;;;;;;;19.75;10.48;;;-4.20;99.90;;;;;;5073967;28;20036;-61
2022/12/15 02:12:20;;;;;;;20.38;10.63;;;-4.00;99.90;;;;;;5073464;28;20066;-60
2022/12/15 02:14:50;;;;;;;25.63;10.70;;;-4.20;99.90;;;;;;5073597;28;20072;-59
2022/12/15 02:17:24;;;;;;;20.00;10.25;;;-4.20;99.90;;;;;;5072778;28;20423;-60
2022/12/15 02:20:13;;;;;;;18.77;10.23;;;-4.20;99.90;;;;;;5073932;28;20131;-62
2022/12/15 02:23:00;;;;;;;18.40;9.27;;;-4.10;99.90;;;;;;5073038;28;20055;-57
2022/12/15 02:25:47;;;;;;;19.88;9.45;;;-4.10;99.90;;;;;;5073627;28;20036;-60
2022/12/15 02:28:35;;;;;;;18.85;9.65;;;-4.10;99.90;;;;;;5061718;28;20049;-61
2022/12/15 02:33:56;;;;;;;19.30;10.18;;;-4.10;99.90;;;;;;5052465;28;20045;-61
2022/12/15 02:36:36;;;;;;;16.88;9.68;;;-4.10;99.90;;;;;;5072934;28;20047;-61
2022/12/15 02:39:03;;;;;;;18.02;9.85;;;-4.10;99.90;;;;;;5055550;28;20048;-62
2022/12/15 02:41:42;;;;;;;17.73;9.77;;;-4.10;99.90;;;;;;5073164;28;20024;-58
2022/12/15 02:44:16;;;;;;;15.00;8.70;;;-4.10;99.90;;;;;;5072799;28;20353;-59
2022/12/15 02:47:04;;;;;;;16.98;8.98;;;-4.10;99.90;;;;;;5072552;28;20052;-60
2022/12/15 02:49:38;;;;;;;17.55;8.88;;;-4.00;99.90;;;;;;5073082;28;20048;-58
2022/12/15 02:52:13;;;;;;;19.95;10.13;;;-4.00;99.90;;;;;;5072645;28;20037;-59
2022/12/15 02:55:08;;;;;;;17.27;9.13;;;-4.00;99.90;;;;;;5072636;28;20056;-62
2022/12/15 02:57:52;;;;;;;19.77;9.48;;;-4.00;99.90;;;;;;5072771;28;20101;-61
2022/12/15 03:00:18;;;;;;;18.42;9.10;;;-3.90;99.90;;;;;;5041866;28;20511;-59
2022/12/15 03:02:48;;;;;;;16.23;9.02;;;-3.90;99.90;;;;;;5072451;28;20036;-59
2022/12/15 03:05:15;;;;;;;16.75;9.40;;;-3.90;99.90;;;;;;5072360;28;20036;-59
2022/12/15 03:07:41;;;;;;;17.77;9.02;;;-4.00;99.90;;;;;;5071977;28;20063;-57
2022/12/15 03:10:10;;;;;;;18.17;9.45;;;-3.90;99.90;;;;;;5055052;28;20086;-59
2022/12/15 03:12:36;;;;;;;16.83;9.15;;;-3.90;99.90;;;;;;5072499;28;20382;-63
2022/12/15 03:15:02;;;;;;;18.83;10.18;;;-3.90;99.90;;;;;;5072549;28;20110;-61
2022/12/15 03:17:28;;;;;;;21.05;10.10;;;-3.90;99.90;;;;;;5053925;28;20104;-60
2022/12/15 03:19:53;;;;;;;16.27;9.15;;;-4.00;99.90;;;;;;5072235;28;20338;-60
2022/12/15 03:22:19;;;;;;;20.50;10.38;;;-4.00;99.90;;;;;;5053695;28;20096;-59
2022/12/15 03:24:45;;;;;;;19.55;9.27;;;-4.10;99.90;;;;;;5072217;28;20036;-59
2022/12/15 03:27:12;;;;;;;17.95;9.02;;;-4.10;99.90;;;;;;5071288;28;20059;-62
2022/12/15 03:29:37;;;;;;;16.52;9.35;;;-4.20;99.90;;;;;;5072067;28;20044;-60
2022/12/15 03:32:03;;;;;;;20.80;9.70;;;-4.20;99.90;;;;;;5071803;28;20440;-61
2022/12/15 03:34:29;;;;;;;21.80;10.13;;;-4.20;99.90;;;;;;5072021;28;20044;-59
2022/12/15 03:36:54;;;;;;;14.93;8.88;;;-4.20;99.90;;;;;;5072350;28;20364;-61
2022/12/15 03:39:20;;;;;;;20.05;9.30;;;-4.20;99.90;;;;;;5072697;28;20116;-59
2022/12/15 03:41:45;;;;;;;18.77;9.40;;;-4.20;99.90;;;;;;5072121;28;20051;-59
2022/12/15 03:44:12;;;;;;;18.33;9.13;;;-4.20;99.90;;;;;;5054627;28;20072;-60
2022/12/15 03:46:38;;;;;;;21.75;9.73;;;-4.20;99.90;;;;;;5053545;28;20440;-61
2022/12/15 03:49:03;;;;;;;19.48;9.27;;;-4.20;99.90;;;;;;5071966;28;20062;-61
2022/12/15 03:51:29;;;;;;;15.38;8.98;;;-4.20;99.90;;;;;;5071847;28;20032;-61
2022/12/15 03:53:54;;;;;;;16.33;10.32;;;-4.20;99.90;;;;;;5071906;28;20402;-59
2022/12/15 03:56:20;;;;;;;18.00;9.02;;;-4.20;99.90;;;;;;5071812;28;20145;-59
2022/12/15 03:58:47;;;;;;;20.42;9.48;;;-4.20;99.90;;;;;;5071613;28;20037;-59
2022/12/15 04:01:27;;;;;;;20.02;9.38;;;-4.20;99.90;;;;;;5071950;28;20393;-63
2022/12/15 04:03:52;;;;;;;16.83;9.48;;;-4.30;99.90;;;;;;5038161;28;20111;-60
2022/12/15 04:06:19;;;;;;;16.95;8.93;;;-4.20;99.90;;;;;;5071365;28;20131;-60
2022/12/15 04:08:47;;;;;;;18.42;9.23;;;-4.20;99.90;;;;;;5071733;28;20042;-60
2022/12/15 04:11:14;;;;;;;18.58;9.73;;;-4.30;99.90;;;;;;5071952;28;20044;-60
2022/12/15 04:13:39;;;;;;;19.35;8.98;;;-4.30;99.90;;;;;;5071223;28;20094;-60
2022/12/15 04:16:05;;;;;;;19.05;9.05;;;-4.30;99.90;;;;;;5072888;28;20037;-59
2022/12/15 04:18:31;;;;;;;19.35;10.25;;;-4.30;99.90;;;;;;5057788;28;20080;-64
2022/12/15 04:20:56;;;;;;;17.00;8.65;;;-4.30;99.90;;;;;;5075672;28;20313;-60
2022/12/15 04:23:22;;;;;;;19.45;9.13;;;-4.30;99.90;;;;;;5075789;28;20041;-59
2022/12/15 05:32:07;;;;;;;20.52;8.73;;;-4.30;99.90;;;;;;5073262;28;20050;-63
2022/12/15 05:34:34;;;;;;;15.50;8.57;;;-4.30;99.90;;;;;;5074268;28;20045;-62
2022/12/15 05:37:03;;;;;;;17.90;9.68;;;-4.30;99.90;;;;;;5074534;28;20052;-59
2022/12/15 05:39:28;;;;;;;19.95;9.48;;;-4.40;99.90;;;;;;5074969;28;20110;-58
2022/12/15 05:41:55;;;;;;;20.10;9.77;;;-4.30;99.90;;;;;;5073968;28;20402;-60
2022/12/15 05:44:24;;;;;;;17.23;9.48;;;-4.30;99.90;;;;;;5074230;28;20054;-62
2022/12/15 05:46:51;;;;;;;17.83;9.77;;;-4.40;99.90;;;;;;5074122;28;20051;-62
2022/12/15 05:49:18;;;;;;;19.77;9.38;;;-4.30;99.90;;;;;;5074459;28;20040;-58
2022/12/15 05:51:46;;;;;;;18.08;9.77;;;-4.40;99.90;;;;;;5060309;28;20044;-59
2022/12/15 05:54:17;;;;;;;16.85;9.32;;;-4.30;99.90;;;;;;5056494;28;20114;-59
2022/12/15 05:56:44;;;;;;;16.50;8.85;;;-4.30;99.90;;;;;;5066937;28;20080;-62
2022/12/15 05:59:09;;;;;;;18.33;9.50;;;-4.20;99.90;;;;;;5074647;28;20036;-57
2022/12/15 06:01:37;;;;;;;19.35;9.63;;;-4.30;99.90;;;;;;5091497;28;20032;-59
2022/12/15 06:04:03;;;;;;;20.38;9.82;;;-4.30;99.90;;;;;;5090195;28;20124;-61
2022/12/15 06:06:29;;;;;;;15.45;8.65;;;-4.30;99.90;;;;;;5091174;28;20145;-61
2022/12/15 06:08:54;;;;;;;16.02;8.90;;;-4.20;99.90;;;;;;5092573;28;20480;-58
2022/12/15 06:11:21;;;;;;;20.67;9.55;;;-4.30;99.90;;;;;;5093040;28;20042;-59
2022/12/15 06:13:47;;;;;;;16.42;8.43;;;-4.20;99.90;;;;;;5088276;28;20032;-60
2022/12/15 06:16:19;;;;;;;15.95;8.48;;;-4.20;99.90;;;;;;5088255;28;20815;-59
2022/12/15 06:18:47;;;;;;;16.33;9.43;;;-4.30;99.90;;;;;;5086850;28;20085;-61
2022/12/15 06:21:15;;;;;;;17.70;9.43;;;-4.20;99.90;;;;;;5084366;28;20463;-60
2022/12/15 06:23:41;;;;;;;18.55;9.30;;;-4.30;99.90;;;;;;5073466;28;20055;-61
2022/12/15 06:26:17;;;;;;;15.93;9.50;;;-4.30;99.90;;;;;;5087159;28;20047;-59
2022/12/15 06:28:43;;;;;;;19.02;9.43;;;-4.30;99.90;;;;;;5080496;28;20049;-61
2022/12/15 06:31:10;;;;;;;19.52;9.63;;;-4.30;99.90;;;;;;5073519;28;20449;-62
2022/12/15 06:33:41;;;;;;;18.00;9.02;;;-4.40;99.90;;;;;;5073766;28;20047;-60
2022/12/15 06:36:12;;;;;;;18.00;8.80;;;-4.30;99.90;;;;;;5072377;28;20131;-61
2022/12/15 06:38:39;;;;;;;18.73;10.00;;;-4.30;99.90;;;;;;5071300;28;20055;-61
2022/12/15 06:41:06;;;;;;;17.23;9.07;;;-4.30;99.90;;;;;;5072546;28;20044;-61
2022/12/15 06:43:32;;;;;;;16.77;8.85;;;-4.30;99.90;;;;;;5084828;28;20217;-58
2022/12/15 06:45:59;;;;;;;20.38;9.45;;;-4.30;99.90;;;;;;5078749;28;20037;-61
2022/12/15 06:48:26;;;;;;;15.43;8.10;;;-4.30;99.90;;;;;;5089783;28;20048;-62
2022/12/15 06:50:52;;;;;;;17.10;9.43;;;-4.20;99.90;;;;;;5069652;28;20028;-59
2022/12/15 06:53:20;;;;;;;16.67;9.13;;;-4.20;99.90;;;;;;5085006;28;20518;-59
2022/12/15 06:55:47;;;;;;;17.20;8.68;;;-4.30;99.90;;;;;;5081989;28;20047;-60
2022/12/15 06:58:15;;;;;;;19.40;8.50;;;-4.20;99.90;;;;;;5075630;28;20053;-61
2022/12/15 07:00:42;;;;;;;16.23;8.85;;;-4.20;99.90;;;;;;5084055;28;20089;-63
2022/12/15 07:03:19;;;;;;;14.55;8.80;;;-4.20;99.90;;;;;;5076394;28;20028;-61
2022/12/15 07:05:45;;;;;;;18.48;8.45;;;-4.30;99.90;;;;;;5084114;28;20067;-62
2022/12/15 07:08:14;;;;;;;17.85;8.70;;;-4.20;99.90;;;;;;5081416;28;20460;-60
2022/12/15 07:10:43;;;;;;;15.35;7.97;;;-4.20;99.90;;;;;;5072099;28;20087;-63
2022/12/15 07:13:10;;;;;;;16.35;8.60;;;-4.20;99.90;;;;;;5071368;28;20401;-60
2022/12/15 07:15:36;;;;;;;14.52;7.68;;;-4.10;99.90;;;;;;5037319;28;20056;-63
2022/12/15 07:18:02;;;;;;;15.15;8.55;;;-4.10;99.90;;;;;;5070906;28;20136;-62
2022/12/15 07:20:27;;;;;;;18.55;8.52;;;-4.00;99.90;;;;;;5072550;28;20035;-62
2022/12/15 07:22:54;;;;;;;18.42;8.90;;;-4.00;99.90;;;;;;5071756;28;20045;-61
2022/12/15 07:25:19;;;;;;;19.30;8.52;;;-4.00;99.90;;;;;;5038254;28;20441;-61
2022/12/15 07:27:55;;;;;;;16.20;9.00;;;-4.00;99.90;;;;;;5054115;28;20139;-62
2022/12/15 07:30:20;;;;;;;20.98;9.68;;;-4.00;99.90;;;;;;5072747;28;20037;-61
2022/12/15 07:32:46;;;;;;;16.55;8.95;;;-4.00;99.90;;;;;;5076427;28;20131;-63
2022/12/15 07:35:11;;;;;;;17.35;8.57;;;-3.90;99.90;;;;;;5072433;28;20040;-62
2022/12/15 07:37:39;;;;;;;18.33;10.88;;;-4.00;99.90;;;;;;5072755;28;20046;-62
2022/12/15 07:40:05;;;;;;;25.33;12.07;;;-3.90;99.90;;;;;;5088632;28;20035;-59
2022/12/15 07:42:31;;;;;;;21.40;11.50;;;-3.90;99.90;;;;;;5084421;28;20036;-66
2022/12/15 07:44:59;;;;;;;19.70;10.15;;;-3.90;99.90;;;;;;5089261;28;20036;-63
2022/12/15 07:47:26;;;;;;;16.83;8.43;;;-3.80;99.90;;;;;;5087852;28;20047;-67
2022/12/15 07:49:53;;;;;;;17.73;9.73;;;-3.80;99.90;;;;;;5052877;28;20160;-59
2022/12/15 07:52:19;;;;;;;19.50;10.75;;;-3.90;99.90;;;;;;5053882;28;20043;-60
2022/12/15 07:54:45;;;;;;;15.70;8.65;;;-3.70;99.90;;;;;;5075979;28;20035;-64
2022/12/15 07:57:10;;;;;;;18.73;9.52;;;-3.80;99.90;;;;;;5072232;28;20040;-60
2022/12/15 07:59:36;;;;;;;17.73;8.50;;;-3.70;99.90;;;;;;5067195;28;20070;-61
2022/12/15 08:02:05;;;;;;;17.27;8.88;;;-3.70;99.90;;;;;;5071251;28;20405;-64
2022/12/15 08:04:31;;;;;;;19.23;8.15;;;-3.70;99.90;;;;;;5071881;28;20309;-63
2022/12/15 08:06:58;;;;;;;16.90;8.02;;;-3.70;99.90;;;;;;5057160;28;20044;-59
2022/12/15 08:09:24;;;;;;;18.15;9.40;;;-3.60;99.90;;;;;;5070732;28;20044;-61
2022/12/15 08:11:51;;;;;;;20.33;9.07;;;-3.50;99.90;;;;;;5072427;28;20058;-63
2022/12/15 08:14:17;;;;;;;18.70;8.80;;;-3.40;99.90;;;;;;5074688;28;20041;-59
2022/12/15 08:16:45;;;;;;;16.23;8.60;;;-3.40;99.90;;;;;;5075275;28;20127;-60
2022/12/15 08:19:14;;;;;;;17.42;8.68;;;-3.40;99.90;;;;;;5053847;28;20448;-56
2022/12/15 08:21:40;;;;;;;16.95;8.95;;;-3.30;99.90;;;;;;5071651;28;20370;-61
2022/12/15 08:24:08;;;;;;;17.95;10.10;;;-3.20;99.90;;;;;;5064197;28;20067;-64
2022/12/15 08:26:34;;;;;;;20.50;10.10;;;-3.10;99.90;;;;;;5087853;28;20048;-62
2022/12/15 08:29:02;;;;;;;18.17;9.98;;;-3.00;99.90;;;;;;5082400;28;20101;-60
2022/12/15 08:31:30;;;;;;;15.75;8.50;;;-3.00;99.90;;;;;;5071328;28;20398;-57
2022/12/15 08:33:56;;;;;;;18.50;9.45;;;-2.90;99.90;;;;;;5070752;28;20490;-62
2022/12/15 08:36:23;;;;;;;19.08;9.50;;;-3.00;99.90;;;;;;5071563;28;20104;-61
2022/12/15 08:38:49;;;;;;;22.20;8.95;;;-2.90;99.90;;;;;;5074357;28;20151;-60
2022/12/15 08:41:21;;;;;;;14.07;8.00;;;-2.90;99.90;;;;;;5073782;28;20063;-61
2022/12/15 08:43:47;;;;;;;17.67;9.25;;;-2.80;99.90;;;;;;5071115;28;20077;-61
2022/12/15 08:46:13;;;;;;;18.85;8.85;;;-2.70;99.90;;;;;;5071335;28;20083;-58
2022/12/15 08:48:40;;;;;;;17.77;9.73;;;-2.60;99.90;;;;;;5071121;28;20072;-60
2022/12/15 08:51:06;;;;;;;17.80;8.70;;;-2.60;99.90;;;;;;5070695;28;20518;-62
2022/12/15 08:53:32;;;;;;;14.95;8.25;;;-2.50;99.90;;;;;;5070392;28;20465;-60
2022/12/15 08:56:11;;;;;;;16.27;8.75;;;-2.40;99.90;;;;;;5071199;28;20041;-58
2022/12/15 08:58:37;;;;;;;15.00;8.02;;;-2.40;99.90;;;;;;5045151;28;20055;-62
2022/12/15 09:01:10;;;;;;;16.95;9.63;;;-2.30;99.90;;;;;;5071212;28;20040;-60
2022/12/15 09:03:37;;;;;;;25.37;10.43;;;-2.20;99.90;;;;;;5074251;28;20056;-59
2022/12/15 09:06:10;;;;;;;27.42;14.52;;;-2.20;99.90;;;;;;5075032;28;20044;-61
2022/12/15 09:08:36;;;;;;;41.58;19.10;;;-2.10;99.90;;;;;;5074695;28;20052;-61
2022/12/15 09:11:02;;;;;;;67.32;29.60;;;-2.00;99.90;;;;;;5074915;28;20051;-62
2022/12/15 09:13:28;;;;;;;100.65;44.42;;;-1.80;99.90;;;;;;5074436;28;20125;-59
2022/12/15 09:16:05;;;;;;;28.95;16.02;;;-1.70;99.90;;;;;;5074337;28;20043;-60
2022/12/15 09:18:32;;;;;;;17.13;9.25;;;-1.50;99.90;;;;;;5074325;28;20040;-62
2022/12/15 09:21:03;;;;;;;14.80;8.50;;;-1.40;99.90;;;;;;5074590;28;20037;-60
2022/12/15 09:23:30;;;;;;;17.33;9.63;;;-1.30;99.90;;;;;;5074197;28;20051;-60
2022/12/15 09:26:03;;;;;;;16.38;9.05;;;-1.30;99.90;;;;;;5074202;28;20040;-58
2022/12/15 09:28:29;;;;;;;13.60;8.57;;;-1.20;99.90;;;;;;5074728;28;20398;-60
2022/12/15 09:31:02;;;;;;;15.80;7.80;;;-1.20;99.90;;;;;;5074480;28;20052;-62
2022/12/15 09:33:28;;;;;;;13.20;7.68;;;-1.10;99.90;;;;;;5073441;28;20441;-59
2022/12/15 09:35:54;;;;;;;15.90;8.20;;;-1.00;99.90;;;;;;5056528;28;20203;-60
2022/12/15 09:38:19;;;;;;;17.10;9.13;;;-1.00;99.90;;;;;;5074347;28;20135;-61
2022/12/15 09:40:45;;;;;;;16.70;10.32;;;-0.90;99.90;;;;;;5074314;28;20040;-59
2022/12/15 09:43:17;;;;;;;15.98;9.48;;;-0.80;99.90;;;;;;5074032;28;20032;-60
2022/12/15 09:45:51;;;;;;;15.18;9.45;;;-0.90;99.90;;;;;;5074399;28;20405;-62
2022/12/15 09:48:20;;;;;;;14.05;8.30;;;-0.70;99.90;;;;;;5074045;28;20115;-60
2022/12/15 09:50:49;;;;;;;18.70;8.30;;;-0.70;99.90;;;;;;5073912;28;20329;-60
2022/12/15 09:53:17;;;;;;;16.08;8.63;;;-0.70;99.90;;;;;;5073448;28;20043;-60
2022/12/15 09:55:47;;;;;;;15.60;8.88;;;-0.70;99.90;;;;;;5074618;28;20102;-60
2022/12/15 09:58:43;;;;;;;19.40;9.05;;;-0.70;99.90;;;;;;5074220;28;20047;-60
2022/12/15 10:01:42;;;;;;;16.65;9.65;;;-0.70;99.90;;;;;;5074314;28;20460;-60
2022/12/15 10:04:21;;;;;;;15.18;9.00;;;-0.70;99.90;;;;;;5055903;28;20056;-60
2022/12/15 10:06:55;;;;;;;17.30;9.40;;;-0.70;99.90;;;;;;5074207;28;20139;-62
2022/12/15 10:09:28;;;;;;;16.35;9.13;;;-0.50;99.90;;;;;;5065969;28;20463;-62
2022/12/15 10:12:30;;;;;;;15.70;9.40;;;-0.40;99.90;;;;;;5079355;28;20036;-62
2022/12/15 10:15:25;;;;;;;16.25;8.95;;;-0.30;99.90;;;;;;5080690;28;20504;-62
2022/12/15 10:18:05;;;;;;;22.25;12.25;;;-0.10;99.90;;;;;;5051475;28;20460;-63
2022/12/15 10:20:32;;;;;;;21.92;10.98;;;0.10;99.90;;;;;;5074411;28;20036;-64
2022/12/15 10:23:08;;;;;;;18.63;11.98;;;0.10;99.90;;;;;;5073382;28;20036;-61
2022/12/15 10:25:33;;;;;;;19.73;11.50;;;0.10;99.90;;;;;;5074008;28;20036;-61
2022/12/15 10:28:32;;;;;;;22.65;13.48;;;0.10;99.90;;;;;;5073156;28;20059;-61
2022/12/15 10:31:03;;;;;;;18.50;10.13;;;0.10;99.90;;;;;;5073708;28;20094;-60
2022/12/15 10:33:34;;;;;;;18.98;9.88;;;0.10;99.90;;;;;;5073260;28;20036;-60
2022/12/15 10:36:00;;;;;;;16.35;8.98;;;0.10;99.90;;;;;;5055614;28;20048;-60
2022/12/15 10:38:51;;;;;;;14.27;9.18;;;0.10;99.90;;;;;;5073630;28;20038;-61
2022/12/15 10:41:21;;;;;;;15.07;8.90;;;0.10;99.90;;;;;;5069894;28;20049;-61
2022/12/15 10:43:51;;;;;;;18.95;10.65;;;0.10;99.90;;;;;;5072746;28;20542;-62
2022/12/15 10:46:26;;;;;;;17.25;11.25;;;0.10;99.90;;;;;;5072145;28;20044;-60
2022/12/15 10:49:04;;;;;;;18.92;11.63;;;0.10;99.90;;;;;;5073106;28;20040;-60
2022/12/15 10:51:35;;;;;;;20.50;10.52;;;0.10;99.90;;;;;;5073045;28;20105;-63
2022/12/15 10:54:20;;;;;;;15.45;9.50;;;0.20;99.90;;;;;;5071993;28;20036;-62
2022/12/15 10:56:48;;;;;;;16.67;9.40;;;0.30;99.90;;;;;;5054914;28;20322;-60
2022/12/15 10:59:43;;;;;;;16.55;9.35;;;0.30;99.90;;;;;;5072758;28;20054;-62
2022/12/15 11:02:20;;;;;;;16.60;8.95;;;0.40;99.90;;;;;;5071593;28;20080;-62
2022/12/15 11:05:04;;;;;;;17.98;9.30;;;0.50;99.90;;;;;;5072680;28;20055;-61
2022/12/15 11:07:46;;;;;;;19.70;10.18;;;0.40;99.90;;;;;;5071725;28;20028;-60
2022/12/15 11:13:17;;;;;;;14.63;9.35;;;0.50;99.90;;;;;;5072081;28;20477;-62
2022/12/15 11:15:48;;;;;;;18.10;9.95;;;0.50;99.90;;;;;;5072506;28;20037;-60
2022/12/15 11:18:17;;;;;;;15.88;9.30;;;0.60;99.90;;;;;;5055379;28;20051;-62
2022/12/15 11:20:50;;;;;;;15.50;9.18;;;0.70;99.90;;;;;;5072697;28;20032;-59
2022/12/15 11:23:37;;;;;;;15.13;9.68;;;0.70;99.90;;;;;;5071111;28;20051;-61
2022/12/15 11:26:31;;;;;;;15.73;8.48;;;0.90;99.90;;;;;;5084703;28;20091;-60
2022/12/15 11:29:08;;;;;;;16.35;8.27;;;0.90;99.90;;;;;;5076687;28;20096;-62
2022/12/15 11:31:38;;;;;;;14.45;8.75;;;0.90;99.90;;;;;;5080771;28;20079;-60
2022/12/15 11:34:12;;;;;;;16.20;9.60;;;1.00;99.90;;;;;;5072557;28;20499;-63
2022/12/15 11:36:46;;;;;;;14.52;8.88;;;1.10;99.90;;;;;;5082826;28;20048;-61
2022/12/15 11:39:20;;;;;;;20.35;10.90;;;1.10;99.90;;;;;;5087669;28;20066;-60
2022/12/15 11:41:56;;;;;;;14.77;8.90;;;1.10;99.90;;;;;;5080605;28;20415;-61
2022/12/15 11:44:24;;;;;;;17.27;9.60;;;1.10;99.90;;;;;;5086454;28;20180;-63
2022/12/15 11:47:43;;;;;;;19.60;13.45;;;1.20;99.90;;;;;;5085074;28;20450;-64
2022/12/15 11:50:29;;;;;;;15.07;9.68;;;1.30;99.90;;;;;;5083962;28;20410;-60
2022/12/15 11:53:07;;;;;;;19.65;9.98;;;1.30;99.90;;;;;;5085131;28;20404;-63
2022/12/15 11:56:02;;;;;;;16.73;8.43;;;1.40;99.90;;;;;;5088820;28;20039;-63
2022/12/15 11:58:50;;;;;;;15.17;8.23;;;1.40;99.90;;;;;;5089477;28;20032;-59
2022/12/15 12:01:57;;;;;;;16.63;9.45;;;1.50;99.90;;;;;;5076432;28;20308;-61
2022/12/15 12:04:28;;;;;;;15.38;8.50;;;1.50;99.90;;;;;;5060033;28;20192;-60
2022/12/15 12:07:28;;;;;;;15.23;9.25;;;1.50;99.90;;;;;;5071880;28;20044;-62
2022/12/15 12:10:30;;;;;;;18.73;9.88;;;1.60;99.90;;;;;;5040272;28;20118;-60
2022/12/15 12:13:17;;;;;;;13.20;8.13;;;1.60;99.90;;;;;;5060988;28;20048;-65
2022/12/15 12:16:02;;;;;;;13.02;8.40;;;1.60;99.90;;;;;;5071771;28;20047;-61
2022/12/15 12:18:34;;;;;;;16.23;8.67;;;1.60;99.90;;;;;;5054002;28;20119;-61
2022/12/15 12:21:14;;;;;;;13.52;8.23;;;1.70;99.90;;;;;;5053591;28;20413;-63
2022/12/15 12:24:10;;;;;;;13.50;9.73;;;1.70;99.90;;;;;;5053580;28;20043;-59
2022/12/15 12:27:04;;;;;;;17.52;9.65;;;1.50;99.90;;;;;;5060026;28;20054;-60
2022/12/15 12:29:33;;;;;;;17.52;9.45;;;1.70;99.90;;;;;;5065420;28;20330;-60
2022/12/15 12:32:25;;;;;;;14.13;8.35;;;1.70;99.90;;;;;;5071337;28;20032;-62
2022/12/15 12:35:07;;;;;;;16.20;8.35;;;1.70;99.90;;;;;;5070875;28;20119;-63
2022/12/15 12:37:40;;;;;;;12.88;8.20;;;1.70;99.90;;;;;;5073626;28;20445;-62
2022/12/15 12:40:26;;;;;;;15.27;8.45;;;1.60;99.90;;;;;;5059800;28;20122;-61
2022/12/15 12:42:57;;;;;;;15.77;8.70;;;1.50;99.90;;;;;;5072494;28;20329;-61
2022/12/15 12:45:36;;;;;;;14.38;7.93;;;1.50;99.90;;;;;;5075532;28;20043;-62
2022/12/15 12:48:34;;;;;;;16.25;8.43;;;1.50;99.90;;;;;;5072687;28;20051;-64
2022/12/15 12:51:30;;;;;;;14.70;8.15;;;1.60;99.90;;;;;;5025384;28;20075;-60
2022/12/15 12:53:57;;;;;;;15.20;8.00;;;1.60;99.90;;;;;;5074657;28;20499;-61
2022/12/15 12:56:30;;;;;;;18.08;8.98;;;1.60;99.90;;;;;;5075171;28;20132;-64
2022/12/15 12:58:56;;;;;;;13.63;9.30;;;1.70;99.90;;;;;;5062593;28;20094;-60
2022/12/15 13:01:31;;;;;;;15.40;9.65;;;1.70;99.90;;;;;;5070598;28;20361;-59
2022/12/15 13:04:11;;;;;;;15.20;9.20;;;1.70;99.90;;;;;;5057496;28;20045;-59
2022/12/15 13:06:40;;;;;;;17.23;9.13;;;1.80;99.90;;;;;;5075836;28;20060;-63
2022/12/15 13:09:18;;;;;;;19.77;9.40;;;1.80;99.90;;;;;;5088553;28;20036;-62
2022/12/15 13:11:57;;;;;;;14.40;9.32;;;1.80;99.90;;;;;;5081621;28;20115;-63
2022/12/15 13:14:43;;;;;;;17.25;9.20;;;1.80;99.90;;;;;;5074927;28;20068;-63
2022/12/15 13:17:25;;;;;;;17.95;9.40;;;1.80;99.90;;;;;;5074751;28;20054;-59
2022/12/15 13:20:00;;;;;;;15.73;9.23;;;1.80;99.90;;;;;;5082471;28;20543;-62
2022/12/15 13:22:34;;;;;;;;;;;1.80;99.90;;;;;;5078206;28;20162;-62
2022/12/15 13:25:01;;;;;;;16.00;8.38;;;1.90;99.90;;;;;;5056316;28;20010;-63
2022/12/15 13:27:39;;;;;;;15.73;9.27;;;2.00;99.90;;;;;;5073872;28;20048;-60
2022/12/15 13:30:07;;;;;;;17.00;8.70;;;2.00;99.90;;;;;;5055759;28;20479;-61
2022/12/15 13:32:40;;;;;;;17.00;8.65;;;2.00;99.90;;;;;;5073770;28;20054;-64
2022/12/15 13:35:12;;;;;;;11.85;8.30;;;2.00;99.90;;;;;;5073844;28;20045;-62
2022/12/15 13:37:46;;;;;;;17.95;8.50;;;2.00;99.90;;;;;;5074260;28;20070;-62
2022/12/15 13:40:33;;;;;;;15.70;8.60;;;2.10;99.90;;;;;;5073683;28;20375;-61
2022/12/15 13:43:05;;;;;;;16.90;8.13;;;2.20;99.90;;;;;;5074063;28;20048;-62
2022/12/15 13:45:35;;;;;;;14.38;8.13;;;2.20;99.90;;;;;;5074343;28;20040;-64
2022/12/15 13:48:24;;;;;;;15.00;8.20;;;2.20;99.90;;;;;;5073915;28;20040;-64
2022/12/15 13:51:13;;;;;;;14.65;8.60;;;2.20;99.90;;;;;;5032394;28;20083;-61
2022/12/15 13:53:45;;;;;;;14.75;8.77;;;2.20;99.90;;;;;;5072900;28;20044;-64
2022/12/15 13:56:10;;;;;;;18.23;9.23;;;2.20;99.90;;;;;;5074536;28;20051;-62
2022/12/15 13:58:53;;;;;;;16.88;9.13;;;2.20;99.90;;;;;;5056287;28;20066;-61
2022/12/15 14:01:26;;;;;;;14.82;8.85;;;2.20;99.90;;;;;;5073983;28;20036;-60
2022/12/15 14:04:14;;;;;;;16.15;9.30;;;2.10;99.90;;;;;;5073775;28;20037;-60
2022/12/15 14:06:55;;;;;;;15.38;8.23;;;2.20;99.90;;;;;;5074470;28;20426;-60
2022/12/15 14:09:27;;;;;;;17.33;8.75;;;2.10;99.90;;;;;;5060841;28;20036;-61
2022/12/15 14:11:53;;;;;;;16.27;8.65;;;2.20;99.90;;;;;;5084612;28;20036;-63
2022/12/15 14:14:28;;;;;;;17.13;9.48;;;2.20;99.90;;;;;;5079004;28;20032;-61
2022/12/15 14:16:58;;;;;;;18.25;9.10;;;2.30;99.90;;;;;;5080652;28;20036;-62
2022/12/15 14:19:24;;;;;;;16.63;9.48;;;2.30;99.90;;;;;;5073252;28;20369;-62
2022/12/15 14:21:55;;;;;;;18.85;9.77;;;2.30;99.90;;;;;;5074396;28;20054;-64
2022/12/15 14:24:25;;;;;;;16.45;9.30;;;2.30;99.90;;;;;;5072831;28;20036;-60
2022/12/15 14:26:51;;;;;;;13.98;8.48;;;2.30;99.90;;;;;;5074505;28;20477;-61
2022/12/15 14:29:17;;;;;;;17.98;9.02;;;2.30;99.90;;;;;;5073536;28;20029;-62
2022/12/15 14:32:02;;;;;;;14.93;8.73;;;2.30;99.90;;;;;;5056053;28;20074;-60
2022/12/15 14:34:40;;;;;;;16.13;9.15;;;2.20;99.90;;;;;;5055717;28;20076;-62
2022/12/15 14:37:12;;;;;;;17.42;9.68;;;2.20;99.90;;;;;;5056167;28;20125;-62
2022/12/15 14:39:43;;;;;;;16.27;9.05;;;2.10;99.90;;;;;;5072379;28;20115;-60
2022/12/15 14:42:22;;;;;;;15.27;8.85;;;2.10;99.90;;;;;;5054708;28;20416;-60
2022/12/15 14:44:48;;;;;;;17.25;9.55;;;2.00;99.90;;;;;;5054899;28;20055;-60
2022/12/15 14:47:20;;;;;;;16.08;8.70;;;2.00;99.90;;;;;;5054589;28;20050;-60
2022/12/15 14:49:47;;;;;;;15.55;8.43;;;2.00;99.90;;;;;;5054333;28;20146;-63
2022/12/15 14:52:25;;;;;;;15.30;8.98;;;2.00;99.90;;;;;;5056523;28;20051;-61
2022/12/15 14:54:56;;;;;;;17.55;9.10;;;1.90;99.90;;;;;;5072883;28;20040;-60
2022/12/15 14:57:26;;;;;;;15.52;9.70;;;1.90;99.90;;;;;;5054868;28;20029;-62
2022/12/15 14:59:52;;;;;;;14.98;9.48;;;1.90;99.90;;;;;;5054218;28;20321;-62
2022/12/15 15:02:25;;;;;;;18.42;10.82;;;1.80;99.90;;;;;;5054160;28;20041;-61
2022/12/15 15:05:03;;;;;;;18.00;9.93;;;1.80;99.90;;;;;;5054528;28;20053;-61
2022/12/15 15:07:36;;;;;;;17.02;10.65;;;1.80;99.90;;;;;;5037960;28;20051;-61
2022/12/15 15:10:07;;;;;;;20.35;10.18;;;1.80;99.90;;;;;;5054004;28;20090;-63
2022/12/15 15:12:47;;;;;;;19.30;9.27;;;1.80;99.90;;;;;;5054004;28;20040;-62
2022/12/15 15:15:18;;;;;;;16.95;10.40;;;1.80;99.90;;;;;;5054498;28;20037;-61
2022/12/15 15:17:59;;;;;;;17.80;9.93;;;1.70;99.90;;;;;;5046700;28;20037;-59
2022/12/15 15:20:28;;;;;;;14.68;9.63;;;1.70;99.90;;;;;;5053726;28;20364;-62
2022/12/15 15:23:11;;;;;;;16.95;10.25;;;1.60;99.90;;;;;;5071671;28;20218;-60
2022/12/15 15:25:49;;;;;;;17.13;10.40;;;1.60;99.90;;;;;;5048888;28;20049;-64
2022/12/15 15:28:16;;;;;;;15.48;9.23;;;1.50;99.90;;;;;;5053625;28;20057;-60
2022/12/15 15:30:45;;;;;;;18.08;10.88;;;1.30;99.90;;;;;;5053155;28;20784;-58